Terminal Aerodrome Forecast
Issued by NWS

Home | Current Version | Previous Version | Text Only | Print | Product List | Glossary On
Versions: 1 2 3 4 5 6 7 8 9 10 11 12 13 14 15 16 17 18 19 20 21 22
000
FTUS41 KGYX 222242 AAA
TAFRKD
TAF AMD
KRKD 222242Z 2223/2318 03018G30KT 5SM -DZ BR OVC010
      TEMPO 2223/2303 2SM -RADZ BR OVC004
     FM230300 03017G30KT 3SM -RADZ BR OVC004
      AMD LTD TO CLD VIS AND WIND=

USA.gov is the U.S. government's official web portal to all federal, state and local government web resources and services.